createdAt,value
2023-02-27T00:03:44.738Z,-3.56
2023-02-27T00:08:46.954Z,-3.72
2023-02-27T00:13:49.585Z,-3.63
2023-02-27T00:18:51.827Z,-3.93
2023-02-27T00:23:54.137Z,-3.66
2023-02-27T00:28:56.361Z,-3.86
2023-02-27T00:33:58.678Z,-3.66
2023-02-27T00:39:19.874Z,-3.82
2023-02-27T00:44:26.152Z,-3.83
2023-02-27T00:49:28.282Z,-3.65
2023-02-27T00:54:30.609Z,-3.81
2023-02-27T00:59:33.041Z,-3.88
2023-02-27T01:04:35.305Z,-3.75
2023-02-27T01:09:37.573Z,-3.81
2023-02-27T01:14:40.049Z,-3.84
2023-02-27T01:19:42.300Z,-4.01
2023-02-27T01:24:45.694Z,-4.14
2023-02-27T01:29:49.046Z,-3.93
2023-02-27T01:34:51.590Z,-4.08
2023-02-27T01:39:53.940Z,-4.08
2023-02-27T01:45:11.394Z,-4.01
2023-02-27T01:50:14.690Z,-4.34
2023-02-27T01:55:16.852Z,-4.08
2023-02-27T02:00:19.620Z,-4.33
2023-02-27T02:05:22.538Z,-4.12
2023-02-27T02:10:24.966Z,-4.24
2023-02-27T02:15:35.348Z,-4.16
2023-02-27T02:21:05.138Z,-4.07
2023-02-27T02:26:18.682Z,-4.11
2023-02-27T02:31:41.656Z,-4.05
2023-02-27T02:37:14.498Z,-4.11
2023-02-27T02:42:31.303Z,-4.67
2023-02-27T02:47:56.196Z,-4.14
2023-02-27T02:53:33.732Z,-4.17
2023-02-27T02:58:58.432Z,-4.20
2023-02-27T03:04:10.320Z,-4.50
2023-02-27T03:09:23.260Z,-4.27
2023-02-27T03:15:02.134Z,-4.38
2023-02-27T03:20:09.685Z,-4.10
2023-02-27T03:25:13.099Z,-4.30
2023-02-27T03:30:25.887Z,-4.28
2023-02-27T03:36:12.673Z,-4.43
2023-02-27T03:41:22.408Z,-4.33
2023-02-27T03:46:39.534Z,-4.29
2023-02-27T03:51:41.931Z,-4.28
2023-02-27T03:56:50.222Z,-4.32
2023-02-27T04:01:52.988Z,-4.36
2023-02-27T04:07:18.153Z,-4.35
2023-02-27T04:12:31.152Z,-4.37
2023-02-27T04:17:40.615Z,-4.32
2023-02-27T04:22:42.551Z,-4.26
2023-02-27T04:28:05.567Z,-4.43
2023-02-27T04:33:12.525Z,-4.31
2023-02-27T04:38:26.700Z,-4.30
2023-02-27T04:43:29.727Z,-4.59
2023-02-27T04:48:40.994Z,-4.30
2023-02-27T04:53:46.349Z,-4.32
2023-02-27T04:58:55.464Z,-4.41
2023-02-27T05:04:00.378Z,-4.39
2023-02-27T05:09:10.756Z,-4.34
2023-02-27T05:14:22.088Z,-4.60
2023-02-27T05:19:24.346Z,-4.50
2023-02-27T05:24:33.785Z,-4.38
2023-02-27T05:29:45.152Z,-4.33
2023-02-27T05:35:09.827Z,-4.58
2023-02-27T05:40:16.116Z,-4.69
2023-02-27T05:45:21.674Z,-4.38
2023-02-27T05:50:28.004Z,-4.51
2023-02-27T05:55:36.165Z,-4.37
2023-02-27T06:00:55.284Z,-4.37
2023-02-27T06:05:58.969Z,-4.42
2023-02-27T06:11:01.970Z,-4.41
2023-02-27T06:16:04.422Z,-4.35
2023-02-27T06:21:06.774Z,-4.46
2023-02-27T06:26:13.822Z,-4.31
2023-02-27T06:31:16.442Z,-4.48
2023-02-27T06:36:18.709Z,-4.30
2023-02-27T06:41:21.266Z,-4.42
2023-02-27T06:46:41.285Z,-4.57
2023-02-27T06:51:46.477Z,-4.50
2023-02-27T06:56:55.427Z,-4.42
2023-02-27T07:01:59.383Z,-4.32
2023-02-27T07:07:35.189Z,-4.43
2023-02-27T07:12:23.800Z,-4.41
2023-02-27T07:17:26.017Z,-4.56
2023-02-27T07:22:28.291Z,-4.68
2023-02-27T07:27:30.932Z,-4.33
2023-02-27T07:32:33.215Z,-4.28
2023-02-27T07:37:35.477Z,-4.16
2023-02-27T07:42:37.729Z,-4.42
2023-02-27T07:47:40.094Z,-4.10
2023-02-27T07:52:45.037Z,-4.25
2023-02-27T07:58:05.465Z,-4.08
2023-02-27T08:03:07.760Z,-4.22
2023-02-27T08:08:09.968Z,-4.29
2023-02-27T08:13:12.160Z,-4.27
2023-02-27T08:18:14.297Z,-3.93
2023-02-27T08:23:16.484Z,-4.00
2023-02-27T08:28:18.747Z,-4.05
2023-02-27T08:33:21.911Z,-3.78
2023-02-27T08:38:26.315Z,-3.72
2023-02-27T08:43:28.675Z,-3.87
2023-02-27T08:48:30.898Z,-4.00
2023-02-27T08:53:33.004Z,-4.08
2023-02-27T08:58:39.320Z,-3.75
2023-02-27T09:03:44.449Z,-3.86
2023-02-27T09:08:46.588Z,-3.65
2023-02-27T09:13:49.030Z,-3.74
2023-02-27T09:18:51.546Z,-3.60
2023-02-27T09:23:53.766Z,-3.63
2023-02-27T09:28:55.926Z,-3.61
2023-02-27T09:33:58.091Z,-3.89
2023-02-27T09:39:00.351Z,-3.61
2023-02-27T09:44:03.027Z,-3.74
2023-02-27T09:49:05.341Z,-3.48
2023-02-27T09:54:08.228Z,-3.58
2023-02-27T09:59:29.300Z,-3.29
2023-02-27T10:05:08.650Z,-3.55
2023-02-27T10:10:20.167Z,-3.33
2023-02-27T10:15:38.384Z,-3.53
2023-02-27T10:20:47.944Z,-3.36
2023-02-27T10:25:50.408Z,-3.27
2023-02-27T10:30:55.043Z,-3.42
2023-02-27T10:35:58.517Z,-3.39
2023-02-27T10:41:02.778Z,-3.26
2023-02-27T10:46:15.898Z,-3.21
2023-02-27T10:51:31.512Z,-3.19
2023-02-27T10:56:34.162Z,-3.21
2023-02-27T11:02:18.074Z,-3.16
2023-02-27T11:07:31.721Z,-3.19
2023-02-27T11:12:35.386Z,-3.21
2023-02-27T11:17:37.482Z,-3.38
2023-02-27T11:22:41.896Z,-3.21
2023-02-27T11:27:46.561Z,-3.22
2023-02-27T11:32:51.545Z,-3.50
2023-02-27T11:37:55.992Z,-3.28
2023-02-27T11:43:05.312Z,-3.30
2023-02-27T11:48:14.921Z,-3.35
2023-02-27T11:53:35.917Z,-3.12
2023-02-27T11:58:43.614Z,-3.23
2023-02-27T12:04:11.554Z,-3.18
2023-02-27T12:09:27.500Z,-3.39
2023-02-27T12:14:38.601Z,-3.24
2023-02-27T12:19:44.709Z,-3.27
2023-02-27T12:24:56.149Z,-3.20
2023-02-27T12:30:28.577Z,-3.13
2023-02-27T12:35:35.091Z,-3.33
2023-02-27T12:40:40.009Z,-3.29
2023-02-27T12:46:00.370Z,-3.16
2023-02-27T12:51:23.390Z,-3.26
2023-02-27T12:56:37.534Z,-3.38
2023-02-27T13:01:48.560Z,-3.57
2023-02-27T13:06:58.283Z,-3.28
2023-02-27T13:12:03.100Z,-3.19
2023-02-27T13:17:17.410Z,-3.32
2023-02-27T13:22:22.460Z,-3.36
2023-02-27T13:27:28.932Z,-3.45
2023-02-27T13:32:56.063Z,-3.30
2023-02-27T13:38:05.551Z,-3.59
2023-02-27T13:43:51.115Z,-3.43
2023-02-27T13:49:29.470Z,-3.63
2023-02-27T13:54:34.163Z,-3.65
2023-02-27T13:59:39.861Z,-3.62
2023-02-27T14:04:53.750Z,-3.64
2023-02-27T14:10:11.760Z,-3.70
2023-02-27T14:15:51.690Z,-3.61
2023-02-27T14:20:54.053Z,-3.82
2023-02-27T14:26:00.128Z,-3.75
2023-02-27T14:31:03.468Z,-3.76
2023-02-27T14:36:08.704Z,-4.01
2023-02-27T14:41:27.523Z,-3.78
2023-02-27T14:46:41.979Z,-3.75
2023-02-27T14:51:44.648Z,-3.77
2023-02-27T14:57:01.591Z,-3.79
2023-02-27T15:02:22.164Z,-3.77
2023-02-27T15:07:31.617Z,-3.91
2023-02-27T15:12:37.914Z,-3.83
2023-02-27T15:17:46.418Z,-3.87
2023-02-27T15:22:48.632Z,-4.34
2023-02-27T15:27:50.996Z,-4.16
2023-02-27T15:32:55.673Z,-3.84
2023-02-27T15:38:02.787Z,-3.82
2023-02-27T15:43:05.371Z,-4.27
2023-02-27T15:48:07.727Z,-3.90
2023-02-27T15:53:17.333Z,-3.93
2023-02-27T15:58:25.442Z,-4.21
2023-02-27T16:03:33.267Z,-4.22
2023-02-27T16:08:35.498Z,-4.00
2023-02-27T16:13:39.293Z,-3.91
2023-02-27T16:18:47.916Z,-3.86
2023-02-27T16:23:50.586Z,-4.08
2023-02-27T16:28:56.756Z,-3.90
2023-02-27T16:34:01.372Z,-4.12
2023-02-27T16:39:06.231Z,-4.33
2023-02-27T16:44:08.472Z,-3.95
2023-02-27T16:49:29.333Z,-3.97
2023-02-27T16:54:31.616Z,-4.16
2023-02-27T16:59:40.112Z,-3.96
2023-02-27T17:04:48.308Z,-4.49
2023-02-27T17:09:52.909Z,-4.31
2023-02-27T17:14:56.031Z,-4.32
2023-02-27T17:19:58.255Z,-4.36
2023-02-27T17:25:00.875Z,-4.23
2023-02-27T17:30:04.981Z,-4.50
2023-02-27T17:35:08.204Z,-4.40
2023-02-27T17:40:14.531Z,-4.55
2023-02-27T17:45:17.043Z,-4.71
2023-02-27T17:50:22.489Z,-4.51
2023-02-27T17:55:24.660Z,-4.63
2023-02-27T18:00:26.844Z,-4.78
2023-02-27T18:05:29.045Z,-4.98
2023-02-27T18:10:31.487Z,-5.13
2023-02-27T18:15:33.766Z,-5.41
2023-02-27T18:20:36.338Z,-4.96
2023-02-27T18:25:38.731Z,-5.21
2023-02-27T18:30:43.867Z,-5.00
2023-02-27T18:35:49.541Z,-5.08
2023-02-27T18:40:51.690Z,-5.14
2023-02-27T18:45:53.837Z,-5.22
2023-02-27T18:51:00.850Z,-5.42
2023-02-27T18:56:05.118Z,-5.45
2023-02-27T19:01:08.746Z,-5.51
2023-02-27T19:06:10.853Z,-5.49
2023-02-27T19:11:33.583Z,-5.50
2023-02-27T19:16:36.031Z,-5.84
2023-02-27T19:21:38.665Z,-5.69
2023-02-27T19:26:41.247Z,-5.70
2023-02-27T19:31:44.886Z,-5.84
2023-02-27T19:36:47.297Z,-5.82
2023-02-27T19:41:49.677Z,-5.88
2023-02-27T19:46:53.327Z,-6.09
2023-02-27T19:51:55.914Z,-6.09
2023-02-27T19:56:58.066Z,-6.27
2023-02-27T20:02:00.539Z,-6.40
2023-02-27T20:07:02.780Z,-6.23
2023-02-27T20:12:05.439Z,-6.27
2023-02-27T20:17:08.282Z,-6.43
2023-02-27T20:22:11.241Z,-6.57
2023-02-27T20:27:15.354Z,-6.77
2023-02-27T20:32:17.877Z,-6.46
2023-02-27T20:37:20.164Z,-6.70
2023-02-27T20:42:22.314Z,-6.63
2023-02-27T20:47:24.523Z,-6.53
2023-02-27T20:52:28.110Z,-6.73
2023-02-27T20:57:30.311Z,-6.86
2023-02-27T21:02:32.447Z,-6.82
2023-02-27T21:07:34.600Z,-6.68
2023-02-27T21:12:37.112Z,-6.73
2023-02-27T21:17:39.228Z,-6.94
2023-02-27T21:22:41.338Z,-7.16
2023-02-27T21:27:43.471Z,-7.13
2023-02-27T21:32:45.742Z,-7.04
2023-02-27T21:37:48.334Z,-7.33
2023-02-27T21:42:53.134Z,-7.25
2023-02-27T21:47:55.406Z,-7.08
2023-02-27T21:52:57.562Z,-7.44
2023-02-27T21:57:59.745Z,-7.47
2023-02-27T22:03:01.994Z,-7.22
2023-02-27T22:08:04.429Z,-7.26
2023-02-27T22:13:06.597Z,-7.52
2023-02-27T22:18:09.176Z,-7.35
2023-02-27T22:23:11.414Z,-7.61
2023-02-27T22:28:13.615Z,-7.33
2023-02-27T22:33:16.056Z,-7.51
2023-02-27T22:38:18.337Z,-7.61
2023-02-27T22:43:20.573Z,-7.99
2023-02-27T22:48:22.848Z,-7.61
2023-02-27T22:53:25.105Z,-7.58
2023-02-27T22:58:27.421Z,-7.68
2023-02-27T23:03:30.126Z,-7.62
2023-02-27T23:08:32.386Z,-7.66
2023-02-27T23:13:34.743Z,-7.73
2023-02-27T23:18:38.780Z,-7.58
2023-02-27T23:23:41.060Z,-7.97
2023-02-27T23:28:43.376Z,-8.05
2023-02-27T23:33:45.981Z,-7.88
2023-02-27T23:38:48.217Z,-7.90
2023-02-27T23:43:53.993Z,-7.96
2023-02-27T23:48:59.720Z,-7.74
2023-02-27T23:54:01.953Z,-7.79
2023-02-27T23:59:05.961Z,-7.91
